sensor_id;sensor_type;location;lat;lon;timestamp;P1;durP1;ratioP1;P2;durP2;ratioP2
6356;SDS011;3211;53.452;-2.264;2023-02-20T00:00:49;5.53;;;2.90;;
6356;SDS011;3211;53.452;-2.264;2023-02-20T00:03:17;2.13;;;1.90;;
6356;SDS011;3211;53.452;-2.264;2023-02-20T00:05:45;4.20;;;1.80;;
6356;SDS011;3211;53.452;-2.264;2023-02-20T00:08:12;4.37;;;2.50;;
6356;SDS011;3211;53.452;-2.264;2023-02-20T00:10:39;3.53;;;2.10;;
6356;SDS011;3211;53.452;-2.264;2023-02-20T00:13:06;4.73;;;3.73;;
6356;SDS011;3211;53.452;-2.264;2023-02-20T00:15:33;3.90;;;2.00;;
6356;SDS011;3211;53.452;-2.264;2023-02-20T00:18:00;2.90;;;1.57;;
6356;SDS011;3211;53.452;-2.264;2023-02-20T00:20:28;6.20;;;1.90;;
6356;SDS011;3211;53.452;-2.264;2023-02-20T00:22:57;6.17;;;1.97;;
6356;SDS011;3211;53.452;-2.264;2023-02-20T00:25:24;1.70;;;1.47;;
6356;SDS011;3211;53.452;-2.264;2023-02-20T00:27:51;2.87;;;1.77;;
6356;SDS011;3211;53.452;-2.264;2023-02-20T00:30:19;4.07;;;1.70;;
6356;SDS011;3211;53.452;-2.264;2023-02-20T00:32:47;2.07;;;1.60;;
6356;SDS011;3211;53.452;-2.264;2023-02-20T00:35:17;3.00;;;1.80;;
6356;SDS011;3211;53.452;-2.264;2023-02-20T00:37:46;2.93;;;1.57;;
6356;SDS011;3211;53.452;-2.264;2023-02-20T00:40:15;2.23;;;1.50;;
6356;SDS011;3211;53.452;-2.264;2023-02-20T00:42:42;1.73;;;1.63;;
6356;SDS011;3211;53.452;-2.264;2023-02-20T00:45:10;2.73;;;1.70;;
6356;SDS011;3211;53.452;-2.264;2023-02-20T00:47:38;2.33;;;1.60;;
6356;SDS011;3211;53.452;-2.264;2023-02-20T00:50:07;2.10;;;1.50;;
6356;SDS011;3211;53.452;-2.264;2023-02-20T00:52:35;2.30;;;1.40;;
6356;SDS011;3211;53.452;-2.264;2023-02-20T00:55:05;1.80;;;1.37;;
6356;SDS011;3211;53.452;-2.264;2023-02-20T00:57:32;2.97;;;1.53;;
6356;SDS011;3211;53.452;-2.264;2023-02-20T00:59:59;2.80;;;1.23;;
6356;SDS011;3211;53.452;-2.264;2023-02-20T01:02:26;4.07;;;1.70;;
6356;SDS011;3211;53.452;-2.264;2023-02-20T01:04:53;1.40;;;1.30;;
6356;SDS011;3211;53.452;-2.264;2023-02-20T01:07:20;1.60;;;1.50;;
6356;SDS011;3211;53.452;-2.264;2023-02-20T01:09:47;1.70;;;1.00;;
6356;SDS011;3211;53.452;-2.264;2023-02-20T01:12:16;2.73;;;1.37;;
6356;SDS011;3211;53.452;-2.264;2023-02-20T01:14:43;1.30;;;1.20;;
6356;SDS011;3211;53.452;-2.264;2023-02-20T01:17:10;3.40;;;1.40;;
6356;SDS011;3211;53.452;-2.264;2023-02-20T01:19:38;3.17;;;1.53;;
6356;SDS011;3211;53.452;-2.264;2023-02-20T01:22:06;3.60;;;1.50;;
6356;SDS011;3211;53.452;-2.264;2023-02-20T01:24:34;1.60;;;1.30;;
6356;SDS011;3211;53.452;-2.264;2023-02-20T01:27:01;1.77;;;1.10;;
6356;SDS011;3211;53.452;-2.264;2023-02-20T01:29:29;1.33;;;1.23;;
6356;SDS011;3211;53.452;-2.264;2023-02-20T01:31:56;4.00;;;1.30;;
6356;SDS011;3211;53.452;-2.264;2023-02-20T01:34:23;1.83;;;1.30;;
6356;SDS011;3211;53.452;-2.264;2023-02-20T01:36:53;1.30;;;1.20;;
6356;SDS011;3211;53.452;-2.264;2023-02-20T01:39:21;1.33;;;1.23;;
6356;SDS011;3211;53.452;-2.264;2023-02-20T01:41:51;1.40;;;1.23;;
6356;SDS011;3211;53.452;-2.264;2023-02-20T01:44:23;3.30;;;2.00;;
6356;SDS011;3211;53.452;-2.264;2023-02-20T01:46:54;2.97;;;1.27;;
6356;SDS011;3211;53.452;-2.264;2023-02-20T01:49:24;1.00;;;0.90;;
6356;SDS011;3211;53.452;-2.264;2023-02-20T01:51:56;1.67;;;1.00;;
6356;SDS011;3211;53.452;-2.264;2023-02-20T01:54:31;1.80;;;1.20;;
6356;SDS011;3211;53.452;-2.264;2023-02-20T01:57:00;1.10;;;1.00;;
6356;SDS011;3211;53.452;-2.264;2023-02-20T01:59:30;1.77;;;1.07;;
6356;SDS011;3211;53.452;-2.264;2023-02-20T02:02:01;1.27;;;1.17;;
6356;SDS011;3211;53.452;-2.264;2023-02-20T02:04:30;1.27;;;1.07;;
6356;SDS011;3211;53.452;-2.264;2023-02-20T02:06:58;2.23;;;1.30;;
6356;SDS011;3211;53.452;-2.264;2023-02-20T02:09:28;5.80;;;1.40;;
6356;SDS011;3211;53.452;-2.264;2023-02-20T02:12:02;1.17;;;1.07;;
6356;SDS011;3211;53.452;-2.264;2023-02-20T02:14:29;1.87;;;1.07;;
6356;SDS011;3211;53.452;-2.264;2023-02-20T02:17:00;1.50;;;1.30;;
6356;SDS011;3211;53.452;-2.264;2023-02-20T02:26:06;2.10;;;1.33;;
6356;SDS011;3211;53.452;-2.264;2023-02-20T02:37:53;1.67;;;1.20;;
6356;SDS011;3211;53.452;-2.264;2023-02-20T02:40:29;1.33;;;1.23;;
6356;SDS011;3211;53.452;-2.264;2023-02-20T02:43:06;3.13;;;1.20;;
6356;SDS011;3211;53.452;-2.264;2023-02-20T02:45:39;1.60;;;1.30;;
6356;SDS011;3211;53.452;-2.264;2023-02-20T02:48:13;2.90;;;1.20;;
6356;SDS011;3211;53.452;-2.264;2023-02-20T02:50:44;2.47;;;1.43;;
6356;SDS011;3211;53.452;-2.264;2023-02-20T02:53:14;1.33;;;1.20;;
6356;SDS011;3211;53.452;-2.264;2023-02-20T02:55:41;1.57;;;1.10;;
6356;SDS011;3211;53.452;-2.264;2023-02-20T02:58:08;3.20;;;1.27;;
6356;SDS011;3211;53.452;-2.264;2023-02-20T03:00:38;2.60;;;1.17;;
6356;SDS011;3211;53.452;-2.264;2023-02-20T03:03:09;1.30;;;1.20;;
6356;SDS011;3211;53.452;-2.264;2023-02-20T03:05:42;1.87;;;1.30;;
6356;SDS011;3211;53.452;-2.264;2023-02-20T03:08:16;2.07;;;1.27;;
6356;SDS011;3211;53.452;-2.264;2023-02-20T03:10:55;1.40;;;1.30;;
6356;SDS011;3211;53.452;-2.264;2023-02-20T03:13:25;1.20;;;1.10;;
6356;SDS011;3211;53.452;-2.264;2023-02-20T03:16:12;1.20;;;1.10;;
6356;SDS011;3211;53.452;-2.264;2023-02-20T03:18:41;1.20;;;1.10;;
6356;SDS011;3211;53.452;-2.264;2023-02-20T03:21:10;1.53;;;1.00;;
6356;SDS011;3211;53.452;-2.264;2023-02-20T03:23:43;2.80;;;1.07;;
6356;SDS011;3211;53.452;-2.264;2023-02-20T03:26:14;1.10;;;1.00;;
6356;SDS011;3211;53.452;-2.264;2023-02-20T03:28:47;1.93;;;1.20;;
6356;SDS011;3211;53.452;-2.264;2023-02-20T03:31:21;2.70;;;1.23;;
6356;SDS011;3211;53.452;-2.264;2023-02-20T03:33:53;1.20;;;1.00;;
6356;SDS011;3211;53.452;-2.264;2023-02-20T03:36:42;1.10;;;1.00;;
6356;SDS011;3211;53.452;-2.264;2023-02-20T03:39:33;1.43;;;1.33;;
6356;SDS011;3211;53.452;-2.264;2023-02-20T03:42:21;1.63;;;1.40;;
6356;SDS011;3211;53.452;-2.264;2023-02-20T03:45:08;1.30;;;1.20;;
6356;SDS011;3211;53.452;-2.264;2023-02-20T03:47:38;3.30;;;1.40;;
6356;SDS011;3211;53.452;-2.264;2023-02-20T03:50:09;2.83;;;1.47;;
6356;SDS011;3211;53.452;-2.264;2023-02-20T03:52:55;3.00;;;1.30;;
6356;SDS011;3211;53.452;-2.264;2023-02-20T03:55:24;1.60;;;1.30;;
6356;SDS011;3211;53.452;-2.264;2023-02-20T03:57:52;1.53;;;1.20;;
6356;SDS011;3211;53.452;-2.264;2023-02-20T04:00:23;1.30;;;1.20;;
6356;SDS011;3211;53.452;-2.264;2023-02-20T04:02:53;1.73;;;1.27;;
6356;SDS011;3211;53.452;-2.264;2023-02-20T04:05:24;1.40;;;1.20;;
6356;SDS011;3211;53.452;-2.264;2023-02-20T04:07:55;2.63;;;1.27;;
6356;SDS011;3211;53.452;-2.264;2023-02-20T04:10:29;2.60;;;1.20;;
6356;SDS011;3211;53.452;-2.264;2023-02-20T04:13:01;1.73;;;1.00;;
6356;SDS011;3211;53.452;-2.264;2023-02-20T04:15:29;2.40;;;1.10;;
6356;SDS011;3211;53.452;-2.264;2023-02-20T04:17:59;1.23;;;1.13;;
6356;SDS011;3211;53.452;-2.264;2023-02-20T04:20:29;1.10;;;1.00;;
6356;SDS011;3211;53.452;-2.264;2023-02-20T04:22:59;1.20;;;1.10;;
6356;SDS011;3211;53.452;-2.264;2023-02-20T04:25:35;1.13;;;1.03;;
6356;SDS011;3211;53.452;-2.264;2023-02-20T04:28:05;1.43;;;0.93;;
6356;SDS011;3211;53.452;-2.264;2023-02-20T04:30:33;1.20;;;1.10;;
6356;SDS011;3211;53.452;-2.264;2023-02-20T04:33:00;1.50;;;1.00;;
6356;SDS011;3211;53.452;-2.264;2023-02-20T04:35:27;2.50;;;1.10;;
6356;SDS011;3211;53.452;-2.264;2023-02-20T04:37:54;1.63;;;1.07;;
6356;SDS011;3211;53.452;-2.264;2023-02-20T04:40:22;2.10;;;1.00;;
6356;SDS011;3211;53.452;-2.264;2023-02-20T04:42:50;1.00;;;0.90;;
6356;SDS011;3211;53.452;-2.264;2023-02-20T04:45:17;1.23;;;1.00;;
6356;SDS011;3211;53.452;-2.264;2023-02-20T04:47:44;1.10;;;1.00;;
6356;SDS011;3211;53.452;-2.264;2023-02-20T04:50:13;1.53;;;0.90;;
6356;SDS011;3211;53.452;-2.264;2023-02-20T04:52:45;1.47;;;1.00;;
6356;SDS011;3211;53.452;-2.264;2023-02-20T04:55:12;1.93;;;1.20;;
6356;SDS011;3211;53.452;-2.264;2023-02-20T04:57:39;1.77;;;0.90;;
6356;SDS011;3211;53.452;-2.264;2023-02-20T05:00:08;1.43;;;1.10;;
6356;SDS011;3211;53.452;-2.264;2023-02-20T05:02:37;1.13;;;1.03;;
6356;SDS011;3211;53.452;-2.264;2023-02-20T05:05:05;1.10;;;1.00;;
6356;SDS011;3211;53.452;-2.264;2023-02-20T05:07:40;0.90;;;0.80;;
6356;SDS011;3211;53.452;-2.264;2023-02-20T05:10:07;2.07;;;1.10;;
6356;SDS011;3211;53.452;-2.264;2023-02-20T05:12:34;1.10;;;1.00;;
6356;SDS011;3211;53.452;-2.264;2023-02-20T05:15:00;1.43;;;1.00;;
6356;SDS011;3211;53.452;-2.264;2023-02-20T05:17:29;1.47;;;0.93;;
6356;SDS011;3211;53.452;-2.264;2023-02-20T05:19:56;1.33;;;1.00;;
6356;SDS011;3211;53.452;-2.264;2023-02-20T05:22:23;1.83;;;1.13;;
6356;SDS011;3211;53.452;-2.264;2023-02-20T05:24:49;1.50;;;1.07;;
6356;SDS011;3211;53.452;-2.264;2023-02-20T05:27:18;1.87;;;1.37;;
6356;SDS011;3211;53.452;-2.264;2023-02-20T05:29:46;2.00;;;1.00;;
6356;SDS011;3211;53.452;-2.264;2023-02-20T05:32:15;3.00;;;1.10;;
6356;SDS011;3211;53.452;-2.264;2023-02-20T05:34:44;2.33;;;0.93;;
6356;SDS011;3211;53.452;-2.264;2023-02-20T05:37:12;1.57;;;1.00;;
6356;SDS011;3211;53.452;-2.264;2023-02-20T05:39:40;1.07;;;0.97;;
6356;SDS011;3211;53.452;-2.264;2023-02-20T05:42:07;1.93;;;1.00;;
6356;SDS011;3211;53.452;-2.264;2023-02-20T05:44:35;2.13;;;1.10;;
6356;SDS011;3211;53.452;-2.264;2023-02-20T05:47:02;1.20;;;1.10;;
6356;SDS011;3211;53.452;-2.264;2023-02-20T05:49:31;2.80;;;1.00;;
6356;SDS011;3211;53.452;-2.264;2023-02-20T05:52:19;2.37;;;1.00;;
6356;SDS011;3211;53.452;-2.264;2023-02-20T05:55:05;1.10;;;1.00;;
6356;SDS011;3211;53.452;-2.264;2023-02-20T05:57:32;1.20;;;1.10;;
6356;SDS011;3211;53.452;-2.264;2023-02-20T05:59:59;3.20;;;1.10;;
6356;SDS011;3211;53.452;-2.264;2023-02-20T06:02:30;1.40;;;0.90;;
6356;SDS011;3211;53.452;-2.264;2023-02-20T06:04:58;1.30;;;1.00;;
6356;SDS011;3211;53.452;-2.264;2023-02-20T06:07:26;1.40;;;1.10;;
6356;SDS011;3211;53.452;-2.264;2023-02-20T06:09:53;1.63;;;0.97;;
6356;SDS011;3211;53.452;-2.264;2023-02-20T06:12:20;2.70;;;1.10;;
6356;SDS011;3211;53.452;-2.264;2023-02-20T06:14:47;1.57;;;1.00;;
6356;SDS011;3211;53.452;-2.264;2023-02-20T06:17:14;1.10;;;1.00;;
6356;SDS011;3211;53.452;-2.264;2023-02-20T06:19:41;4.53;;;1.83;;
6356;SDS011;3211;53.452;-2.264;2023-02-20T06:22:08;2.03;;;1.10;;
6356;SDS011;3211;53.452;-2.264;2023-02-20T06:24:36;0.80;;;0.80;;
6356;SDS011;3211;53.452;-2.264;2023-02-20T06:27:03;2.73;;;1.20;;
6356;SDS011;3211;53.452;-2.264;2023-02-20T06:29:32;1.10;;;1.00;;
6356;SDS011;3211;53.452;-2.264;2023-02-20T06:31:59;1.73;;;1.00;;
6356;SDS011;3211;53.452;-2.264;2023-02-20T06:34:26;1.40;;;1.27;;
6356;SDS011;3211;53.452;-2.264;2023-02-20T06:36:55;1.30;;;1.10;;
6356;SDS011;3211;53.452;-2.264;2023-02-20T06:39:22;1.20;;;0.97;;
6356;SDS011;3211;53.452;-2.264;2023-02-20T06:41:50;1.10;;;0.90;;
6356;SDS011;3211;53.452;-2.264;2023-02-20T06:44:17;1.77;;;1.00;;
6356;SDS011;3211;53.452;-2.264;2023-02-20T06:46:44;2.60;;;1.40;;
6356;SDS011;3211;53.452;-2.264;2023-02-20T06:49:11;1.00;;;0.90;;
6356;SDS011;3211;53.452;-2.264;2023-02-20T06:51:38;1.10;;;1.00;;
6356;SDS011;3211;53.452;-2.264;2023-02-20T06:54:06;1.13;;;0.90;;
6356;SDS011;3211;53.452;-2.264;2023-02-20T06:56:33;2.67;;;1.00;;
6356;SDS011;3211;53.452;-2.264;2023-02-20T06:59:03;1.00;;;0.80;;
6356;SDS011;3211;53.452;-2.264;2023-02-20T07:01:36;1.93;;;0.90;;
6356;SDS011;3211;53.452;-2.264;2023-02-20T07:04:05;1.23;;;0.90;;
6356;SDS011;3211;53.452;-2.264;2023-02-20T07:06:33;1.73;;;1.17;;
6356;SDS011;3211;53.452;-2.264;2023-02-20T07:09:01;1.30;;;0.93;;
6356;SDS011;3211;53.452;-2.264;2023-02-20T07:11:28;1.03;;;0.80;;
6356;SDS011;3211;53.452;-2.264;2023-02-20T07:13:55;1.43;;;0.90;;
6356;SDS011;3211;53.452;-2.264;2023-02-20T07:16:24;1.67;;;0.90;;
6356;SDS011;3211;53.452;-2.264;2023-02-20T07:18:51;1.00;;;0.90;;
6356;SDS011;3211;53.452;-2.264;2023-02-20T07:21:17;1.50;;;1.00;;
6356;SDS011;3211;53.452;-2.264;2023-02-20T07:23:44;0.90;;;0.90;;
6356;SDS011;3211;53.452;-2.264;2023-02-20T07:26:16;1.00;;;0.90;;
6356;SDS011;3211;53.452;-2.264;2023-02-20T07:28:44;3.80;;;0.90;;
6356;SDS011;3211;53.452;-2.264;2023-02-20T07:31:11;1.00;;;0.90;;
6356;SDS011;3211;53.452;-2.264;2023-02-20T07:33:40;2.13;;;1.13;;
6356;SDS011;3211;53.452;-2.264;2023-02-20T07:36:07;1.83;;;1.00;;
6356;SDS011;3211;53.452;-2.264;2023-02-20T07:38:35;1.70;;;0.90;;
6356;SDS011;3211;53.452;-2.264;2023-02-20T07:41:02;2.80;;;1.20;;
6356;SDS011;3211;53.452;-2.264;2023-02-20T07:43:29;2.50;;;0.90;;
6356;SDS011;3211;53.452;-2.264;2023-02-20T07:45:56;3.13;;;0.90;;
6356;SDS011;3211;53.452;-2.264;2023-02-20T07:48:23;1.17;;;1.00;;
6356;SDS011;3211;53.452;-2.264;2023-02-20T07:50:53;3.43;;;1.40;;
6356;SDS011;3211;53.452;-2.264;2023-02-20T07:53:20;1.20;;;1.10;;
6356;SDS011;3211;53.452;-2.264;2023-02-20T07:55:47;1.37;;;1.27;;
6356;SDS011;3211;53.452;-2.264;2023-02-20T07:58:14;2.17;;;1.20;;
6356;SDS011;3211;53.452;-2.264;2023-02-20T08:00:41;2.97;;;1.50;;
6356;SDS011;3211;53.452;-2.264;2023-02-20T08:03:08;1.93;;;1.40;;
6356;SDS011;3211;53.452;-2.264;2023-02-20T08:05:35;2.33;;;1.40;;
6356;SDS011;3211;53.452;-2.264;2023-02-20T08:08:03;3.30;;;1.20;;
6356;SDS011;3211;53.452;-2.264;2023-02-20T08:10:31;2.03;;;1.50;;
6356;SDS011;3211;53.452;-2.264;2023-02-20T08:12:58;3.20;;;1.30;;
6356;SDS011;3211;53.452;-2.264;2023-02-20T08:15:26;1.63;;;1.10;;
6356;SDS011;3211;53.452;-2.264;2023-02-20T08:17:53;1.90;;;1.27;;
6356;SDS011;3211;53.452;-2.264;2023-02-20T08:20:20;1.60;;;1.10;;
6356;SDS011;3211;53.452;-2.264;2023-02-20T08:22:48;2.40;;;1.20;;
6356;SDS011;3211;53.452;-2.264;2023-02-20T08:25:17;2.70;;;1.50;;
6356;SDS011;3211;53.452;-2.264;2023-02-20T08:27:45;3.90;;;1.07;;
6356;SDS011;3211;53.452;-2.264;2023-02-20T08:30:16;1.17;;;1.07;;
6356;SDS011;3211;53.452;-2.264;2023-02-20T08:32:47;1.90;;;1.03;;
6356;SDS011;3211;53.452;-2.264;2023-02-20T08:35:14;2.23;;;1.10;;
6356;SDS011;3211;53.452;-2.264;2023-02-20T08:37:41;2.80;;;1.00;;
6356;SDS011;3211;53.452;-2.264;2023-02-20T08:40:09;1.73;;;1.00;;
6356;SDS011;3211;53.452;-2.264;2023-02-20T08:42:38;2.10;;;0.90;;
6356;SDS011;3211;53.452;-2.264;2023-02-20T08:45:05;1.77;;;0.90;;
6356;SDS011;3211;53.452;-2.264;2023-02-20T08:47:33;1.57;;;1.00;;
6356;SDS011;3211;53.452;-2.264;2023-02-20T08:50:00;1.13;;;1.00;;
6356;SDS011;3211;53.452;-2.264;2023-02-20T08:52:28;1.10;;;1.00;;
6356;SDS011;3211;53.452;-2.264;2023-02-20T08:54:55;4.07;;;1.27;;
6356;SDS011;3211;53.452;-2.264;2023-02-20T08:57:22;1.30;;;1.00;;
6356;SDS011;3211;53.452;-2.264;2023-02-20T08:59:50;1.50;;;1.00;;
6356;SDS011;3211;53.452;-2.264;2023-02-20T09:02:18;1.40;;;1.03;;
6356;SDS011;3211;53.452;-2.264;2023-02-20T09:04:48;1.33;;;1.20;;
6356;SDS011;3211;53.452;-2.264;2023-02-20T09:07:15;1.20;;;1.10;;
6356;SDS011;3211;53.452;-2.264;2023-02-20T09:09:42;1.10;;;1.00;;
6356;SDS011;3211;53.452;-2.264;2023-02-20T09:12:09;1.33;;;1.00;;
6356;SDS011;3211;53.452;-2.264;2023-02-20T09:14:36;1.63;;;1.23;;
6356;SDS011;3211;53.452;-2.264;2023-02-20T09:17:05;2.20;;;1.20;;
6356;SDS011;3211;53.452;-2.264;2023-02-20T09:19:32;1.53;;;1.27;;
6356;SDS011;3211;53.452;-2.264;2023-02-20T09:21:59;2.40;;;1.27;;
6356;SDS011;3211;53.452;-2.264;2023-02-20T09:24:26;1.27;;;1.17;;
6356;SDS011;3211;53.452;-2.264;2023-02-20T09:26:56;2.00;;;1.03;;
6356;SDS011;3211;53.452;-2.264;2023-02-20T09:29:23;2.00;;;1.20;;
6356;SDS011;3211;53.452;-2.264;2023-02-20T09:31:50;1.50;;;1.03;;
6356;SDS011;3211;53.452;-2.264;2023-02-20T09:34:18;1.50;;;1.20;;
6356;SDS011;3211;53.452;-2.264;2023-02-20T09:36:45;1.83;;;1.20;;
6356;SDS011;3211;53.452;-2.264;2023-02-20T09:39:12;1.73;;;1.27;;
6356;SDS011;3211;53.452;-2.264;2023-02-20T09:41:45;1.30;;;1.10;;
6356;SDS011;3211;53.452;-2.264;2023-02-20T09:44:24;2.70;;;1.40;;
6356;SDS011;3211;53.452;-2.264;2023-02-20T09:46:56;3.33;;;1.27;;
6356;SDS011;3211;53.452;-2.264;2023-02-20T09:49:29;1.50;;;1.30;;
6356;SDS011;3211;53.452;-2.264;2023-02-20T09:51:59;1.30;;;1.20;;
6356;SDS011;3211;53.452;-2.264;2023-02-20T09:54:30;2.23;;;1.20;;
6356;SDS011;3211;53.452;-2.264;2023-02-20T09:57:00;3.00;;;1.10;;
6356;SDS011;3211;53.452;-2.264;2023-02-20T09:59:31;2.20;;;1.60;;
6356;SDS011;3211;53.452;-2.264;2023-02-20T10:02:01;1.40;;;1.10;;
6356;SDS011;3211;53.452;-2.264;2023-02-20T10:04:37;1.83;;;1.20;;
6356;SDS011;3211;53.452;-2.264;2023-02-20T10:07:11;2.60;;;1.27;;
6356;SDS011;3211;53.452;-2.264;2023-02-20T10:09:43;1.60;;;1.20;;
6356;SDS011;3211;53.452;-2.264;2023-02-20T10:12:13;1.63;;;1.27;;
6356;SDS011;3211;53.452;-2.264;2023-02-20T10:14:51;5.07;;;1.30;;
6356;SDS011;3211;53.452;-2.264;2023-02-20T10:17:31;1.53;;;1.30;;
6356;SDS011;3211;53.452;-2.264;2023-02-20T10:20:08;3.63;;;1.23;;
6356;SDS011;3211;53.452;-2.264;2023-02-20T10:22:42;1.70;;;1.10;;
6356;SDS011;3211;53.452;-2.264;2023-02-20T10:25:18;1.20;;;1.00;;
6356;SDS011;3211;53.452;-2.264;2023-02-20T10:27:53;2.60;;;1.60;;
6356;SDS011;3211;53.452;-2.264;2023-02-20T10:30:26;1.47;;;1.30;;
6356;SDS011;3211;53.452;-2.264;2023-02-20T10:32:57;2.70;;;1.53;;
6356;SDS011;3211;53.452;-2.264;2023-02-20T10:35:32;3.90;;;1.57;;
6356;SDS011;3211;53.452;-2.264;2023-02-20T10:38:04;3.37;;;1.73;;
6356;SDS011;3211;53.452;-2.264;2023-02-20T10:40:35;1.87;;;1.47;;
6356;SDS011;3211;53.452;-2.264;2023-02-20T10:43:09;1.80;;;1.47;;
6356;SDS011;3211;53.452;-2.264;2023-02-20T10:45:44;1.70;;;1.60;;
6356;SDS011;3211;53.452;-2.264;2023-02-20T10:48:18;3.63;;;1.50;;
6356;SDS011;3211;53.452;-2.264;2023-02-20T10:50:48;2.77;;;1.80;;
6356;SDS011;3211;53.452;-2.264;2023-02-20T10:53:21;3.83;;;1.70;;
6356;SDS011;3211;53.452;-2.264;2023-02-20T10:55:53;2.57;;;1.60;;
6356;SDS011;3211;53.452;-2.264;2023-02-20T10:58:27;3.17;;;1.57;;
6356;SDS011;3211;53.452;-2.264;2023-02-20T11:00:59;4.67;;;1.40;;
6356;SDS011;3211;53.452;-2.264;2023-02-20T11:03:30;3.37;;;1.77;;
6356;SDS011;3211;53.452;-2.264;2023-02-20T11:06:05;3.77;;;1.47;;
6356;SDS011;3211;53.452;-2.264;2023-02-20T11:08:36;2.83;;;1.20;;
6356;SDS011;3211;53.452;-2.264;2023-02-20T11:11:08;4.67;;;1.50;;
6356;SDS011;3211;53.452;-2.264;2023-02-20T11:13:47;1.40;;;1.30;;
6356;SDS011;3211;53.452;-2.264;2023-02-20T11:16:16;1.57;;;1.47;;
6356;SDS011;3211;53.452;-2.264;2023-02-20T11:19:00;4.77;;;1.57;;
6356;SDS011;3211;53.452;-2.264;2023-02-20T11:21:36;2.70;;;1.57;;
6356;SDS011;3211;53.452;-2.264;2023-02-20T11:24:19;4.67;;;1.60;;
6356;SDS011;3211;53.452;-2.264;2023-02-20T11:27:08;2.77;;;1.70;;
6356;SDS011;3211;53.452;-2.264;2023-02-20T11:29:39;4.20;;;1.60;;
6356;SDS011;3211;53.452;-2.264;2023-02-20T11:32:29;4.43;;;2.10;;
6356;SDS011;3211;53.452;-2.264;2023-02-20T11:40:45;2.90;;;1.47;;
6356;SDS011;3211;53.452;-2.264;2023-02-20T11:43:27;2.60;;;1.30;;
6356;SDS011;3211;53.452;-2.264;2023-02-20T11:46:00;4.90;;;1.50;;
6356;SDS011;3211;53.452;-2.264;2023-02-20T11:48:34;2.57;;;1.20;;
6356;SDS011;3211;53.452;-2.264;2023-02-20T11:51:02;2.57;;;1.37;;
6356;SDS011;3211;53.452;-2.264;2023-02-20T11:53:31;1.87;;;1.20;;
6356;SDS011;3211;53.452;-2.264;2023-02-20T11:56:06;1.53;;;1.20;;
6356;SDS011;3211;53.452;-2.264;2023-02-20T11:58:36;1.47;;;1.07;;
6356;SDS011;3211;53.452;-2.264;2023-02-20T12:01:04;1.87;;;1.20;;
6356;SDS011;3211;53.452;-2.264;2023-02-20T12:03:32;3.40;;;1.30;;
6356;SDS011;3211;53.452;-2.264;2023-02-20T12:06:00;1.63;;;1.17;;
6356;SDS011;3211;53.452;-2.264;2023-02-20T12:08:46;2.43;;;1.20;;
6356;SDS011;3211;53.452;-2.264;2023-02-20T12:11:20;1.70;;;1.20;;
6356;SDS011;3211;53.452;-2.264;2023-02-20T12:13:49;3.47;;;1.30;;
6356;SDS011;3211;53.452;-2.264;2023-02-20T12:19:09;2.33;;;1.40;;
6356;SDS011;3211;53.452;-2.264;2023-02-20T12:22:00;2.03;;;1.20;;
6356;SDS011;3211;53.452;-2.264;2023-02-20T12:24:37;5.60;;;1.30;;
6356;SDS011;3211;53.452;-2.264;2023-02-20T12:30:17;2.17;;;1.20;;
6356;SDS011;3211;53.452;-2.264;2023-02-20T12:32:56;1.93;;;1.10;;
6356;SDS011;3211;53.452;-2.264;2023-02-20T12:35:30;2.00;;;1.40;;
6356;SDS011;3211;53.452;-2.264;2023-02-20T12:41:00;1.23;;;1.10;;
6356;SDS011;3211;53.452;-2.264;2023-02-20T12:43:44;3.63;;;1.30;;
6356;SDS011;3211;53.452;-2.264;2023-02-20T12:46:16;1.90;;;1.23;;
6356;SDS011;3211;53.452;-2.264;2023-02-20T12:48:53;1.90;;;1.10;;
6356;SDS011;3211;53.452;-2.264;2023-02-20T12:51:30;1.20;;;1.10;;
6356;SDS011;3211;53.452;-2.264;2023-02-20T12:54:06;1.83;;;1.13;;
6356;SDS011;3211;53.452;-2.264;2023-02-20T12:56:51;1.70;;;1.10;;
6356;SDS011;3211;53.452;-2.264;2023-02-20T12:59:26;1.50;;;1.00;;
6356;SDS011;3211;53.452;-2.264;2023-02-20T13:01:58;1.23;;;1.00;;
6356;SDS011;3211;53.452;-2.264;2023-02-20T13:04:32;3.03;;;1.30;;
6356;SDS011;3211;53.452;-2.264;2023-02-20T13:07:11;1.50;;;1.20;;
6356;SDS011;3211;53.452;-2.264;2023-02-20T13:09:44;1.87;;;1.00;;
6356;SDS011;3211;53.452;-2.264;2023-02-20T13:12:19;3.63;;;1.50;;
6356;SDS011;3211;53.452;-2.264;2023-02-20T13:14:51;1.60;;;1.33;;
6356;SDS011;3211;53.452;-2.264;2023-02-20T13:17:27;1.97;;;1.10;;
6356;SDS011;3211;53.452;-2.264;2023-02-20T13:20:04;1.93;;;1.27;;
6356;SDS011;3211;53.452;-2.264;2023-02-20T13:22:39;2.03;;;1.20;;
6356;SDS011;3211;53.452;-2.264;2023-02-20T13:28:20;4.63;;;1.40;;
6356;SDS011;3211;53.452;-2.264;2023-02-20T13:31:14;2.33;;;1.00;;
6356;SDS011;3211;53.452;-2.264;2023-02-20T13:33:44;2.90;;;1.23;;
6356;SDS011;3211;53.452;-2.264;2023-02-20T13:39:25;1.97;;;1.20;;
6356;SDS011;3211;53.452;-2.264;2023-02-20T13:42:00;1.53;;;1.27;;
6356;SDS011;3211;53.452;-2.264;2023-02-20T13:44:38;1.30;;;1.00;;
6356;SDS011;3211;53.452;-2.264;2023-02-20T13:49:58;2.97;;;1.30;;
6356;SDS011;3211;53.452;-2.264;2023-02-20T13:52:29;1.70;;;1.10;;
6356;SDS011;3211;53.452;-2.264;2023-02-20T13:55:00;2.53;;;1.27;;
6356;SDS011;3211;53.452;-2.264;2023-02-20T13:57:29;2.33;;;1.40;;
6356;SDS011;3211;53.452;-2.264;2023-02-20T13:59:59;1.57;;;1.17;;
6356;SDS011;3211;53.452;-2.264;2023-02-20T14:02:28;2.30;;;1.30;;
6356;SDS011;3211;53.452;-2.264;2023-02-20T14:04:56;1.80;;;1.10;;
6356;SDS011;3211;53.452;-2.264;2023-02-20T14:07:29;1.50;;;1.20;;
6356;SDS011;3211;53.452;-2.264;2023-02-20T14:10:01;3.80;;;1.30;;
6356;SDS011;3211;53.452;-2.264;2023-02-20T14:12:32;3.30;;;1.20;;
6356;SDS011;3211;53.452;-2.264;2023-02-20T14:15:03;2.90;;;1.27;;
6356;SDS011;3211;53.452;-2.264;2023-02-20T14:17:31;4.53;;;1.60;;
6356;SDS011;3211;53.452;-2.264;2023-02-20T14:20:00;1.80;;;1.10;;
6356;SDS011;3211;53.452;-2.264;2023-02-20T14:22:29;2.83;;;1.50;;
6356;SDS011;3211;53.452;-2.264;2023-02-20T14:25:01;2.83;;;1.40;;
6356;SDS011;3211;53.452;-2.264;2023-02-20T14:28:02;2.03;;;1.10;;
6356;SDS011;3211;53.452;-2.264;2023-02-20T14:30:37;1.83;;;1.27;;
6356;SDS011;3211;53.452;-2.264;2023-02-20T14:33:09;2.00;;;1.20;;
6356;SDS011;3211;53.452;-2.264;2023-02-20T14:36:02;2.80;;;1.40;;
6356;SDS011;3211;53.452;-2.264;2023-02-20T14:38:42;4.60;;;1.20;;
6356;SDS011;3211;53.452;-2.264;2023-02-20T14:41:19;2.67;;;1.37;;
6356;SDS011;3211;53.452;-2.264;2023-02-20T14:43:55;3.07;;;1.63;;
6356;SDS011;3211;53.452;-2.264;2023-02-20T14:46:26;1.90;;;1.20;;
6356;SDS011;3211;53.452;-2.264;2023-02-20T14:49:02;3.97;;;1.57;;
6356;SDS011;3211;53.452;-2.264;2023-02-20T14:51:34;1.30;;;1.10;;
6356;SDS011;3211;53.452;-2.264;2023-02-20T14:54:04;1.40;;;1.30;;
6356;SDS011;3211;53.452;-2.264;2023-02-20T14:56:42;3.17;;;1.20;;
6356;SDS011;3211;53.452;-2.264;2023-02-20T14:59:21;3.07;;;1.13;;
6356;SDS011;3211;53.452;-2.264;2023-02-20T15:01:51;2.70;;;1.20;;
6356;SDS011;3211;53.452;-2.264;2023-02-20T15:04:22;2.40;;;1.40;;
6356;SDS011;3211;53.452;-2.264;2023-02-20T15:06:52;3.57;;;1.30;;
6356;SDS011;3211;53.452;-2.264;2023-02-20T15:09:34;3.30;;;1.90;;
6356;SDS011;3211;53.452;-2.264;2023-02-20T15:12:03;1.80;;;1.37;;
6356;SDS011;3211;53.452;-2.264;2023-02-20T15:14:33;2.20;;;1.20;;
6356;SDS011;3211;53.452;-2.264;2023-02-20T15:17:18;1.73;;;1.00;;
6356;SDS011;3211;53.452;-2.264;2023-02-20T15:19:47;3.70;;;1.30;;
6356;SDS011;3211;53.452;-2.264;2023-02-20T15:22:26;2.60;;;1.27;;
6356;SDS011;3211;53.452;-2.264;2023-02-20T15:25:10;3.47;;;1.40;;
6356;SDS011;3211;53.452;-2.264;2023-02-20T15:27:38;1.10;;;1.00;;
6356;SDS011;3211;53.452;-2.264;2023-02-20T15:30:06;2.10;;;1.20;;
6356;SDS011;3211;53.452;-2.264;2023-02-20T15:32:38;1.73;;;1.30;;
6356;SDS011;3211;53.452;-2.264;2023-02-20T15:35:11;1.83;;;1.30;;
6356;SDS011;3211;53.452;-2.264;2023-02-20T15:37:41;1.17;;;1.07;;
6356;SDS011;3211;53.452;-2.264;2023-02-20T15:40:15;2.50;;;1.40;;
6356;SDS011;3211;53.452;-2.264;2023-02-20T15:42:45;2.80;;;1.40;;
6356;SDS011;3211;53.452;-2.264;2023-02-20T15:45:12;1.10;;;1.00;;
6356;SDS011;3211;53.452;-2.264;2023-02-20T15:47:40;1.33;;;1.00;;
6356;SDS011;3211;53.452;-2.264;2023-02-20T15:50:07;1.60;;;1.40;;
6356;SDS011;3211;53.452;-2.264;2023-02-20T15:52:34;2.70;;;1.17;;
6356;SDS011;3211;53.452;-2.264;2023-02-20T15:55:02;3.23;;;1.10;;
6356;SDS011;3211;53.452;-2.264;2023-02-20T15:57:29;2.60;;;1.20;;
6356;SDS011;3211;53.452;-2.264;2023-02-20T15:59:55;1.50;;;1.10;;
6356;SDS011;3211;53.452;-2.264;2023-02-20T16:02:22;1.57;;;1.30;;